sensor_id;sensor_type;location;lat;lon;timestamp;temperature;humidity
42201;DHT22;27869;51.442;7.540;2024-02-16T00:00:07;12.70;99.90
42201;DHT22;27869;51.442;7.540;2024-02-16T00:02:34;12.80;99.90
42201;DHT22;27869;51.442;7.540;2024-02-16T00:05:00;12.70;99.90
42201;DHT22;27869;51.442;7.540;2024-02-16T00:07:29;12.70;99.90
42201;DHT22;27869;51.442;7.540;2024-02-16T00:09:56;12.70;99.90
42201;DHT22;27869;51.442;7.540;2024-02-16T00:12:24;12.70;99.90
42201;DHT22;27869;51.442;7.540;2024-02-16T00:14:51;12.70;99.90
42201;DHT22;27869;51.442;7.540;2024-02-16T00:17:18;12.70;99.90
42201;DHT22;27869;51.442;7.540;2024-02-16T00:19:45;12.70;99.90
42201;DHT22;27869;51.442;7.540;2024-02-16T00:22:12;12.70;99.90
42201;DHT22;27869;51.442;7.540;2024-02-16T00:24:52;12.80;99.90
42201;DHT22;27869;51.442;7.540;2024-02-16T00:27:19;12.80;99.90
42201;DHT22;27869;51.442;7.540;2024-02-16T00:29:47;12.80;99.90
42201;DHT22;27869;51.442;7.540;2024-02-16T00:32:14;12.80;99.90
42201;DHT22;27869;51.442;7.540;2024-02-16T00:34:41;12.80;99.90
42201;DHT22;27869;51.442;7.540;2024-02-16T00:37:08;12.80;99.90
42201;DHT22;27869;51.442;7.540;2024-02-16T00:39:37;12.80;99.90
42201;DHT22;27869;51.442;7.540;2024-02-16T00:42:05;12.80;99.90
42201;DHT22;27869;51.442;7.540;2024-02-16T00:44:32;12.80;99.90
42201;DHT22;27869;51.442;7.540;2024-02-16T00:47:01;12.80;99.90
42201;DHT22;27869;51.442;7.540;2024-02-16T00:49:27;12.80;99.90
42201;DHT22;27869;51.442;7.540;2024-02-16T00:51:54;12.90;99.90
42201;DHT22;27869;51.442;7.540;2024-02-16T00:54:21;12.80;99.90
42201;DHT22;27869;51.442;7.540;2024-02-16T00:56:48;12.80;99.90
42201;DHT22;27869;51.442;7.540;2024-02-16T00:59:15;12.90;99.90
42201;DHT22;27869;51.442;7.540;2024-02-16T01:01:42;12.90;99.90
42201;DHT22;27869;51.442;7.540;2024-02-16T01:04:10;12.90;99.90
42201;DHT22;27869;51.442;7.540;2024-02-16T01:06:39;12.90;99.90
42201;DHT22;27869;51.442;7.540;2024-02-16T01:09:05;12.90;99.90
42201;DHT22;27869;51.442;7.540;2024-02-16T01:11:32;12.90;99.90
42201;DHT22;27869;51.442;7.540;2024-02-16T01:14:00;12.90;99.90
42201;DHT22;27869;51.442;7.540;2024-02-16T01:16:26;12.90;99.90
42201;DHT22;27869;51.442;7.540;2024-02-16T01:18:54;12.80;99.90
42201;DHT22;27869;51.442;7.540;2024-02-16T01:21:23;12.80;99.90
42201;DHT22;27869;51.442;7.540;2024-02-16T01:23:50;12.80;99.90
42201;DHT22;27869;51.442;7.540;2024-02-16T01:26:17;12.80;99.90
42201;DHT22;27869;51.442;7.540;2024-02-16T01:28:44;12.90;99.90
42201;DHT22;27869;51.442;7.540;2024-02-16T01:31:10;12.90;99.90
42201;DHT22;27869;51.442;7.540;2024-02-16T01:33:37;12.80;99.90
42201;DHT22;27869;51.442;7.540;2024-02-16T01:36:05;12.90;99.90
42201;DHT22;27869;51.442;7.540;2024-02-16T01:38:33;12.90;99.90
42201;DHT22;27869;51.442;7.540;2024-02-16T01:41:00;12.90;99.90
42201;DHT22;27869;51.442;7.540;2024-02-16T01:43:28;12.90;99.90
42201;DHT22;27869;51.442;7.540;2024-02-16T01:45:55;12.90;99.90
42201;DHT22;27869;51.442;7.540;2024-02-16T01:48:24;12.90;99.90
42201;DHT22;27869;51.442;7.540;2024-02-16T01:50:52;12.90;99.90
42201;DHT22;27869;51.442;7.540;2024-02-16T01:53:20;12.90;99.90
42201;DHT22;27869;51.442;7.540;2024-02-16T01:55:49;12.90;99.90
42201;DHT22;27869;51.442;7.540;2024-02-16T01:58:17;12.90;99.90
42201;DHT22;27869;51.442;7.540;2024-02-16T02:00:43;12.90;99.90
42201;DHT22;27869;51.442;7.540;2024-02-16T02:03:11;12.90;99.90
42201;DHT22;27869;51.442;7.540;2024-02-16T02:05:44;12.80;99.90
42201;DHT22;27869;51.442;7.540;2024-02-16T02:08:12;12.80;99.90
42201;DHT22;27869;51.442;7.540;2024-02-16T02:10:39;12.80;99.90
42201;DHT22;27869;51.442;7.540;2024-02-16T02:13:07;12.80;99.90
42201;DHT22;27869;51.442;7.540;2024-02-16T02:15:34;12.80;99.90
42201;DHT22;27869;51.442;7.540;2024-02-16T02:18:01;12.90;99.90
42201;DHT22;27869;51.442;7.540;2024-02-16T02:20:28;12.90;99.90
42201;DHT22;27869;51.442;7.540;2024-02-16T02:22:56;12.90;99.90
42201;DHT22;27869;51.442;7.540;2024-02-16T02:25:23;12.90;99.90
42201;DHT22;27869;51.442;7.540;2024-02-16T02:27:52;12.90;99.90
42201;DHT22;27869;51.442;7.540;2024-02-16T02:30:19;12.90;99.90
42201;DHT22;27869;51.442;7.540;2024-02-16T02:32:46;12.90;99.90
42201;DHT22;27869;51.442;7.540;2024-02-16T02:35:15;12.90;99.90
42201;DHT22;27869;51.442;7.540;2024-02-16T02:37:43;12.90;99.90
42201;DHT22;27869;51.442;7.540;2024-02-16T02:40:12;12.90;99.90
42201;DHT22;27869;51.442;7.540;2024-02-16T02:42:39;12.90;99.90
42201;DHT22;27869;51.442;7.540;2024-02-16T02:45:06;12.90;99.90
42201;DHT22;27869;51.442;7.540;2024-02-16T02:47:33;12.90;99.90
42201;DHT22;27869;51.442;7.540;2024-02-16T02:50:01;12.90;99.90
42201;DHT22;27869;51.442;7.540;2024-02-16T02:52:28;12.90;99.90
42201;DHT22;27869;51.442;7.540;2024-02-16T02:54:55;12.90;99.90
42201;DHT22;27869;51.442;7.540;2024-02-16T02:57:23;12.90;99.90
42201;DHT22;27869;51.442;7.540;2024-02-16T02:59:50;12.90;99.90
42201;DHT22;27869;51.442;7.540;2024-02-16T03:02:16;13.00;99.90
42201;DHT22;27869;51.442;7.540;2024-02-16T03:04:43;13.00;99.90
42201;DHT22;27869;51.442;7.540;2024-02-16T03:07:10;13.00;99.90
42201;DHT22;27869;51.442;7.540;2024-02-16T03:09:37;13.00;99.90
42201;DHT22;27869;51.442;7.540;2024-02-16T03:12:04;13.00;99.90
42201;DHT22;27869;51.442;7.540;2024-02-16T03:14:33;13.00;99.90
42201;DHT22;27869;51.442;7.540;2024-02-16T03:17:00;13.00;99.90
42201;DHT22;27869;51.442;7.540;2024-02-16T03:19:27;13.00;99.90
42201;DHT22;27869;51.442;7.540;2024-02-16T03:21:54;13.00;99.90
42201;DHT22;27869;51.442;7.540;2024-02-16T03:24:21;13.00;99.90
42201;DHT22;27869;51.442;7.540;2024-02-16T03:26:48;13.00;99.90
42201;DHT22;27869;51.442;7.540;2024-02-16T03:29:15;13.00;99.90
42201;DHT22;27869;51.442;7.540;2024-02-16T03:31:43;13.00;99.90
42201;DHT22;27869;51.442;7.540;2024-02-16T03:34:10;13.00;99.90
42201;DHT22;27869;51.442;7.540;2024-02-16T03:36:37;13.00;99.90
42201;DHT22;27869;51.442;7.540;2024-02-16T03:39:04;13.00;99.90
42201;DHT22;27869;51.442;7.540;2024-02-16T03:41:34;13.00;99.90
42201;DHT22;27869;51.442;7.540;2024-02-16T03:44:01;12.90;99.90
42201;DHT22;27869;51.442;7.540;2024-02-16T03:46:28;12.90;99.90
42201;DHT22;27869;51.442;7.540;2024-02-16T03:48:57;12.90;99.90
42201;DHT22;27869;51.442;7.540;2024-02-16T03:51:23;13.00;99.90
42201;DHT22;27869;51.442;7.540;2024-02-16T03:53:50;12.90;99.90
42201;DHT22;27869;51.442;7.540;2024-02-16T03:56:19;12.90;99.90
42201;DHT22;27869;51.442;7.540;2024-02-16T03:58:46;12.90;99.90
42201;DHT22;27869;51.442;7.540;2024-02-16T04:01:13;12.90;99.90
42201;DHT22;27869;51.442;7.540;2024-02-16T04:03:40;12.90;99.90
42201;DHT22;27869;51.442;7.540;2024-02-16T04:06:08;12.90;99.90
42201;DHT22;27869;51.442;7.540;2024-02-16T04:08:35;12.90;99.90
42201;DHT22;27869;51.442;7.540;2024-02-16T04:11:02;12.90;99.90
42201;DHT22;27869;51.442;7.540;2024-02-16T04:13:29;12.90;99.90
42201;DHT22;27869;51.442;7.540;2024-02-16T04:15:58;12.90;99.90
42201;DHT22;27869;51.442;7.540;2024-02-16T04:18:25;12.90;99.90
42201;DHT22;27869;51.442;7.540;2024-02-16T04:20:51;12.90;99.90
42201;DHT22;27869;51.442;7.540;2024-02-16T04:23:19;12.90;99.90
42201;DHT22;27869;51.442;7.540;2024-02-16T04:25:46;12.90;99.90
42201;DHT22;27869;51.442;7.540;2024-02-16T04:28:13;12.90;99.90
42201;DHT22;27869;51.442;7.540;2024-02-16T04:30:40;12.90;99.90
42201;DHT22;27869;51.442;7.540;2024-02-16T04:33:08;12.90;99.90
42201;DHT22;27869;51.442;7.540;2024-02-16T04:35:34;12.90;99.90
42201;DHT22;27869;51.442;7.540;2024-02-16T04:38:01;12.90;99.90
42201;DHT22;27869;51.442;7.540;2024-02-16T04:40:35;12.90;99.90
42201;DHT22;27869;51.442;7.540;2024-02-16T04:43:02;12.90;99.90
42201;DHT22;27869;51.442;7.540;2024-02-16T04:45:29;12.90;99.90
42201;DHT22;27869;51.442;7.540;2024-02-16T04:47:56;12.90;99.90
42201;DHT22;27869;51.442;7.540;2024-02-16T04:50:24;12.90;99.90
42201;DHT22;27869;51.442;7.540;2024-02-16T04:52:52;12.90;99.90
42201;DHT22;27869;51.442;7.540;2024-02-16T04:55:19;12.90;99.90
42201;DHT22;27869;51.442;7.540;2024-02-16T04:57:47;13.00;99.90
42201;DHT22;27869;51.442;7.540;2024-02-16T05:00:14;13.00;99.90
42201;DHT22;27869;51.442;7.540;2024-02-16T05:02:41;13.00;99.90
42201;DHT22;27869;51.442;7.540;2024-02-16T05:05:08;13.00;99.90
42201;DHT22;27869;51.442;7.540;2024-02-16T05:07:35;13.00;99.90
42201;DHT22;27869;51.442;7.540;2024-02-16T05:10:03;13.00;99.90
42201;DHT22;27869;51.442;7.540;2024-02-16T05:12:30;12.90;99.90
42201;DHT22;27869;51.442;7.540;2024-02-16T05:14:58;12.90;99.90
42201;DHT22;27869;51.442;7.540;2024-02-16T05:17:24;13.00;99.90
42201;DHT22;27869;51.442;7.540;2024-02-16T05:19:52;13.00;99.90
42201;DHT22;27869;51.442;7.540;2024-02-16T05:22:19;13.00;99.90
42201;DHT22;27869;51.442;7.540;2024-02-16T05:24:47;13.00;99.90
42201;DHT22;27869;51.442;7.540;2024-02-16T05:27:14;13.00;99.90
42201;DHT22;27869;51.442;7.540;2024-02-16T05:29:41;13.00;99.90
42201;DHT22;27869;51.442;7.540;2024-02-16T05:32:09;13.00;99.90
42201;DHT22;27869;51.442;7.540;2024-02-16T05:34:38;12.90;99.90
42201;DHT22;27869;51.442;7.540;2024-02-16T05:37:05;12.90;99.90
42201;DHT22;27869;51.442;7.540;2024-02-16T05:39:33;12.90;99.90
42201;DHT22;27869;51.442;7.540;2024-02-16T05:42:08;12.90;99.90
42201;DHT22;27869;51.442;7.540;2024-02-16T05:44:35;12.90;99.90
42201;DHT22;27869;51.442;7.540;2024-02-16T05:47:03;12.90;99.90
42201;DHT22;27869;51.442;7.540;2024-02-16T05:49:33;12.90;99.90
42201;DHT22;27869;51.442;7.540;2024-02-16T05:52:00;12.90;99.90
42201;DHT22;27869;51.442;7.540;2024-02-16T05:54:41;12.90;99.90
42201;DHT22;27869;51.442;7.540;2024-02-16T05:57:08;12.90;99.90
42201;DHT22;27869;51.442;7.540;2024-02-16T05:59:35;12.90;99.90
42201;DHT22;27869;51.442;7.540;2024-02-16T06:02:05;12.90;99.90
42201;DHT22;27869;51.442;7.540;2024-02-16T06:04:35;12.90;99.90
42201;DHT22;27869;51.442;7.540;2024-02-16T06:07:03;12.90;99.90
42201;DHT22;27869;51.442;7.540;2024-02-16T06:09:31;12.90;99.90
42201;DHT22;27869;51.442;7.540;2024-02-16T06:12:01;12.90;99.90
42201;DHT22;27869;51.442;7.540;2024-02-16T06:14:30;12.90;99.90
42201;DHT22;27869;51.442;7.540;2024-02-16T06:16:57;12.90;99.90
42201;DHT22;27869;51.442;7.540;2024-02-16T06:19:24;12.90;99.90
42201;DHT22;27869;51.442;7.540;2024-02-16T06:21:53;12.90;99.90
42201;DHT22;27869;51.442;7.540;2024-02-16T06:24:20;12.90;99.90
42201;DHT22;27869;51.442;7.540;2024-02-16T06:26:47;12.90;99.90
42201;DHT22;27869;51.442;7.540;2024-02-16T06:29:14;13.00;99.90
42201;DHT22;27869;51.442;7.540;2024-02-16T06:31:41;13.00;99.90
42201;DHT22;27869;51.442;7.540;2024-02-16T06:34:08;12.90;99.90
42201;DHT22;27869;51.442;7.540;2024-02-16T06:36:34;12.90;99.90
42201;DHT22;27869;51.442;7.540;2024-02-16T06:39:03;12.90;99.90
42201;DHT22;27869;51.442;7.540;2024-02-16T06:41:30;12.90;99.90
42201;DHT22;27869;51.442;7.540;2024-02-16T06:43:56;12.90;99.90
42201;DHT22;27869;51.442;7.540;2024-02-16T06:46:23;12.90;99.90
42201;DHT22;27869;51.442;7.540;2024-02-16T06:48:53;12.90;99.90
42201;DHT22;27869;51.442;7.540;2024-02-16T06:51:22;12.90;99.90
42201;DHT22;27869;51.442;7.540;2024-02-16T06:53:49;12.90;99.90
42201;DHT22;27869;51.442;7.540;2024-02-16T06:56:18;12.90;99.90
42201;DHT22;27869;51.442;7.540;2024-02-16T06:58:45;12.90;99.90
42201;DHT22;27869;51.442;7.540;2024-02-16T07:01:12;12.90;99.90
42201;DHT22;27869;51.442;7.540;2024-02-16T07:03:39;12.90;99.90
42201;DHT22;27869;51.442;7.540;2024-02-16T07:06:06;12.90;99.90
42201;DHT22;27869;51.442;7.540;2024-02-16T07:08:35;12.80;99.90
42201;DHT22;27869;51.442;7.540;2024-02-16T07:11:03;12.90;99.90
42201;DHT22;27869;51.442;7.540;2024-02-16T07:13:31;12.80;99.90
42201;DHT22;27869;51.442;7.540;2024-02-16T07:15:58;12.80;99.90
42201;DHT22;27869;51.442;7.540;2024-02-16T07:18:25;12.80;99.90
42201;DHT22;27869;51.442;7.540;2024-02-16T07:20:52;12.80;99.90
42201;DHT22;27869;51.442;7.540;2024-02-16T07:23:19;12.80;99.90
42201;DHT22;27869;51.442;7.540;2024-02-16T07:25:46;12.80;99.90
42201;DHT22;27869;51.442;7.540;2024-02-16T07:28:14;12.80;99.90
42201;DHT22;27869;51.442;7.540;2024-02-16T07:30:43;12.80;99.90
42201;DHT22;27869;51.442;7.540;2024-02-16T07:33:10;12.80;99.90
42201;DHT22;27869;51.442;7.540;2024-02-16T07:35:37;12.80;99.90
42201;DHT22;27869;51.442;7.540;2024-02-16T07:38:04;12.80;99.90
42201;DHT22;27869;51.442;7.540;2024-02-16T07:40:35;12.80;99.90
42201;DHT22;27869;51.442;7.540;2024-02-16T07:43:02;12.80;99.90
42201;DHT22;27869;51.442;7.540;2024-02-16T07:45:30;12.90;99.90
42201;DHT22;27869;51.442;7.540;2024-02-16T07:47:58;12.90;99.90
42201;DHT22;27869;51.442;7.540;2024-02-16T07:50:30;12.90;99.90
42201;DHT22;27869;51.442;7.540;2024-02-16T07:52:57;12.90;99.90
42201;DHT22;27869;51.442;7.540;2024-02-16T07:55:24;12.90;99.90
42201;DHT22;27869;51.442;7.540;2024-02-16T07:57:51;12.90;99.90
42201;DHT22;27869;51.442;7.540;2024-02-16T08:00:18;12.90;99.90
42201;DHT22;27869;51.442;7.540;2024-02-16T08:02:45;12.90;99.90
42201;DHT22;27869;51.442;7.540;2024-02-16T08:05:13;12.90;99.90
42201;DHT22;27869;51.442;7.540;2024-02-16T08:07:42;12.90;99.90
42201;DHT22;27869;51.442;7.540;2024-02-16T08:10:09;12.90;99.90
42201;DHT22;27869;51.442;7.540;2024-02-16T08:12:36;12.90;99.90
42201;DHT22;27869;51.442;7.540;2024-02-16T08:15:04;12.90;99.90
42201;DHT22;27869;51.442;7.540;2024-02-16T08:17:32;12.90;99.90
42201;DHT22;27869;51.442;7.540;2024-02-16T08:20:00;13.00;99.90
42201;DHT22;27869;51.442;7.540;2024-02-16T08:22:28;13.00;99.90
42201;DHT22;27869;51.442;7.540;2024-02-16T08:24:55;13.10;99.90
42201;DHT22;27869;51.442;7.540;2024-02-16T08:27:22;13.10;99.90
42201;DHT22;27869;51.442;7.540;2024-02-16T08:29:50;13.10;99.90
42201;DHT22;27869;51.442;7.540;2024-02-16T08:32:17;13.20;99.90
42201;DHT22;27869;51.442;7.540;2024-02-16T08:34:46;13.20;99.90
42201;DHT22;27869;51.442;7.540;2024-02-16T08:37:16;13.20;99.90
42201;DHT22;27869;51.442;7.540;2024-02-16T08:39:44;13.30;99.90
42201;DHT22;27869;51.442;7.540;2024-02-16T08:42:11;13.30;99.90
42201;DHT22;27869;51.442;7.540;2024-02-16T08:44:38;13.30;99.90
42201;DHT22;27869;51.442;7.540;2024-02-16T08:47:06;13.40;99.90
42201;DHT22;27869;51.442;7.540;2024-02-16T08:49:33;13.50;99.90
42201;DHT22;27869;51.442;7.540;2024-02-16T08:52:00;13.50;99.90
42201;DHT22;27869;51.442;7.540;2024-02-16T08:54:27;13.50;99.90
42201;DHT22;27869;51.442;7.540;2024-02-16T08:56:55;13.60;99.90
42201;DHT22;27869;51.442;7.540;2024-02-16T08:59:22;13.60;99.90
42201;DHT22;27869;51.442;7.540;2024-02-16T09:01:49;13.60;99.90
42201;DHT22;27869;51.442;7.540;2024-02-16T09:04:16;13.60;99.90
42201;DHT22;27869;51.442;7.540;2024-02-16T09:06:43;13.60;99.90
42201;DHT22;27869;51.442;7.540;2024-02-16T09:09:10;13.60;99.90
42201;DHT22;27869;51.442;7.540;2024-02-16T09:11:37;13.60;99.90
42201;DHT22;27869;51.442;7.540;2024-02-16T09:14:05;13.60;99.90
42201;DHT22;27869;51.442;7.540;2024-02-16T09:16:32;13.60;99.90
42201;DHT22;27869;51.442;7.540;2024-02-16T09:18:59;13.60;99.90
42201;DHT22;27869;51.442;7.540;2024-02-16T09:21:26;13.70;99.90
42201;DHT22;27869;51.442;7.540;2024-02-16T09:23:55;13.70;99.90
42201;DHT22;27869;51.442;7.540;2024-02-16T09:26:24;13.70;99.90
42201;DHT22;27869;51.442;7.540;2024-02-16T09:28:55;13.70;99.90
42201;DHT22;27869;51.442;7.540;2024-02-16T09:31:24;13.80;99.90
42201;DHT22;27869;51.442;7.540;2024-02-16T09:33:51;13.80;99.90
42201;DHT22;27869;51.442;7.540;2024-02-16T09:36:19;13.80;99.90
42201;DHT22;27869;51.442;7.540;2024-02-16T09:38:46;13.90;99.90
42201;DHT22;27869;51.442;7.540;2024-02-16T09:41:13;13.90;99.90
42201;DHT22;27869;51.442;7.540;2024-02-16T09:43:41;13.90;99.90
42201;DHT22;27869;51.442;7.540;2024-02-16T09:46:08;14.00;99.90
42201;DHT22;27869;51.442;7.540;2024-02-16T09:48:39;14.00;99.90
42201;DHT22;27869;51.442;7.540;2024-02-16T09:51:09;14.00;99.90
42201;DHT22;27869;51.442;7.540;2024-02-16T09:53:36;14.00;99.90
42201;DHT22;27869;51.442;7.540;2024-02-16T09:56:05;14.00;99.90
42201;DHT22;27869;51.442;7.540;2024-02-16T09:58:34;14.00;99.90
42201;DHT22;27869;51.442;7.540;2024-02-16T10:01:01;14.00;99.90
42201;DHT22;27869;51.442;7.540;2024-02-16T10:03:30;14.10;99.90
42201;DHT22;27869;51.442;7.540;2024-02-16T10:06:06;14.10;99.90
42201;DHT22;27869;51.442;7.540;2024-02-16T10:08:33;14.10;99.90
42201;DHT22;27869;51.442;7.540;2024-02-16T10:11:01;14.10;99.90
42201;DHT22;27869;51.442;7.540;2024-02-16T10:13:29;14.10;99.90
42201;DHT22;27869;51.442;7.540;2024-02-16T10:16:04;14.20;99.90
42201;DHT22;27869;51.442;7.540;2024-02-16T10:18:34;14.20;99.90
42201;DHT22;27869;51.442;7.540;2024-02-16T10:21:01;14.20;99.90
42201;DHT22;27869;51.442;7.540;2024-02-16T10:23:29;14.20;99.90
42201;DHT22;27869;51.442;7.540;2024-02-16T10:25:57;14.20;99.90
42201;DHT22;27869;51.442;7.540;2024-02-16T10:28:26;14.30;99.90
42201;DHT22;27869;51.442;7.540;2024-02-16T10:30:58;14.30;99.90
42201;DHT22;27869;51.442;7.540;2024-02-16T10:33:27;14.30;99.90
42201;DHT22;27869;51.442;7.540;2024-02-16T10:35:56;14.30;99.90
42201;DHT22;27869;51.442;7.540;2024-02-16T10:38:23;14.30;99.90
42201;DHT22;27869;51.442;7.540;2024-02-16T10:40:53;14.30;99.90
42201;DHT22;27869;51.442;7.540;2024-02-16T10:43:27;14.30;99.90
42201;DHT22;27869;51.442;7.540;2024-02-16T10:45:55;14.40;99.90
42201;DHT22;27869;51.442;7.540;2024-02-16T10:48:23;14.40;99.90
42201;DHT22;27869;51.442;7.540;2024-02-16T10:50:50;14.30;99.90
42201;DHT22;27869;51.442;7.540;2024-02-16T10:53:21;14.40;99.90
42201;DHT22;27869;51.442;7.540;2024-02-16T10:55:49;14.40;99.90
42201;DHT22;27869;51.442;7.540;2024-02-16T10:58:18;14.40;99.90
42201;DHT22;27869;51.442;7.540;2024-02-16T11:00:51;14.40;99.90
42201;DHT22;27869;51.442;7.540;2024-02-16T11:03:22;14.40;99.90
42201;DHT22;27869;51.442;7.540;2024-02-16T11:05:51;14.40;99.90
42201;DHT22;27869;51.442;7.540;2024-02-16T11:08:19;14.40;99.90
42201;DHT22;27869;51.442;7.540;2024-02-16T11:11:00;14.40;99.90
42201;DHT22;27869;51.442;7.540;2024-02-16T11:13:33;14.50;99.90
42201;DHT22;27869;51.442;7.540;2024-02-16T11:16:01;14.50;99.90
42201;DHT22;27869;51.442;7.540;2024-02-16T11:18:29;14.50;99.90
42201;DHT22;27869;51.442;7.540;2024-02-16T11:21:00;14.60;99.90
42201;DHT22;27869;51.442;7.540;2024-02-16T11:23:27;14.60;99.90
42201;DHT22;27869;51.442;7.540;2024-02-16T11:25:59;14.60;99.90
42201;DHT22;27869;51.442;7.540;2024-02-16T11:28:27;14.60;99.90
42201;DHT22;27869;51.442;7.540;2024-02-16T11:30:56;14.60;99.90
42201;DHT22;27869;51.442;7.540;2024-02-16T11:33:23;14.70;99.90
42201;DHT22;27869;51.442;7.540;2024-02-16T11:35:55;14.70;99.90
42201;DHT22;27869;51.442;7.540;2024-02-16T11:38:23;14.70;99.90
42201;DHT22;27869;51.442;7.540;2024-02-16T11:40:54;14.70;99.90
42201;DHT22;27869;51.442;7.540;2024-02-16T11:43:21;14.70;99.90
42201;DHT22;27869;51.442;7.540;2024-02-16T11:45:49;14.70;99.90
42201;DHT22;27869;51.442;7.540;2024-02-16T11:48:20;14.70;99.90
42201;DHT22;27869;51.442;7.540;2024-02-16T11:50:49;14.70;99.90
42201;DHT22;27869;51.442;7.540;2024-02-16T11:53:17;14.70;99.90
42201;DHT22;27869;51.442;7.540;2024-02-16T11:55:48;14.70;99.90
42201;DHT22;27869;51.442;7.540;2024-02-16T11:58:16;14.70;99.90
42201;DHT22;27869;51.442;7.540;2024-02-16T12:00:44;14.70;99.90
42201;DHT22;27869;51.442;7.540;2024-02-16T12:03:19;14.80;99.90
42201;DHT22;27869;51.442;7.540;2024-02-16T12:05:51;14.80;99.90
42201;DHT22;27869;51.442;7.540;2024-02-16T12:08:18;14.80;99.90
42201;DHT22;27869;51.442;7.540;2024-02-16T12:10:47;14.80;99.90
42201;DHT22;27869;51.442;7.540;2024-02-16T12:13:15;14.80;99.90
42201;DHT22;27869;51.442;7.540;2024-02-16T12:15:44;14.80;99.90
42201;DHT22;27869;51.442;7.540;2024-02-16T12:18:20;14.80;99.90
42201;DHT22;27869;51.442;7.540;2024-02-16T12:20:57;14.80;99.90
42201;DHT22;27869;51.442;7.540;2024-02-16T12:23:24;14.80;99.90
42201;DHT22;27869;51.442;7.540;2024-02-16T12:25:51;14.80;99.90
42201;DHT22;27869;51.442;7.540;2024-02-16T12:28:18;14.80;99.90
42201;DHT22;27869;51.442;7.540;2024-02-16T12:30:46;14.80;99.90
42201;DHT22;27869;51.442;7.540;2024-02-16T12:33:14;14.80;99.90
42201;DHT22;27869;51.442;7.540;2024-02-16T12:35:42;14.80;99.90
42201;DHT22;27869;51.442;7.540;2024-02-16T12:38:10;14.80;99.90
42201;DHT22;27869;51.442;7.540;2024-02-16T12:40:37;14.80;99.90
42201;DHT22;27869;51.442;7.540;2024-02-16T12:43:04;14.70;99.90
42201;DHT22;27869;51.442;7.540;2024-02-16T12:45:34;14.70;99.90
42201;DHT22;27869;51.442;7.540;2024-02-16T12:48:01;14.70;99.90
42201;DHT22;27869;51.442;7.540;2024-02-16T12:50:29;14.70;99.90
42201;DHT22;27869;51.442;7.540;2024-02-16T12:52:57;14.70;99.90
42201;DHT22;27869;51.442;7.540;2024-02-16T12:55:27;14.70;99.90
42201;DHT22;27869;51.442;7.540;2024-02-16T12:57:56;14.60;99.90
42201;DHT22;27869;51.442;7.540;2024-02-16T13:00:23;14.60;99.90
42201;DHT22;27869;51.442;7.540;2024-02-16T13:02:50;14.60;99.90
42201;DHT22;27869;51.442;7.540;2024-02-16T13:05:17;14.60;99.90
42201;DHT22;27869;51.442;7.540;2024-02-16T13:07:44;14.60;99.90
42201;DHT22;27869;51.442;7.540;2024-02-16T13:10:13;14.60;99.90
42201;DHT22;27869;51.442;7.540;2024-02-16T13:12:39;14.60;99.90
42201;DHT22;27869;51.442;7.540;2024-02-16T13:15:08;14.50;99.90
42201;DHT22;27869;51.442;7.540;2024-02-16T13:17:35;14.50;99.90
42201;DHT22;27869;51.442;7.540;2024-02-16T13:20:03;14.50;99.90
42201;DHT22;27869;51.442;7.540;2024-02-16T13:22:35;14.40;99.90
42201;DHT22;27869;51.442;7.540;2024-02-16T13:25:02;14.40;99.90
42201;DHT22;27869;51.442;7.540;2024-02-16T13:27:31;14.30;99.90
42201;DHT22;27869;51.442;7.540;2024-02-16T13:29:58;14.30;99.90
42201;DHT22;27869;51.442;7.540;2024-02-16T13:32:25;14.20;99.90
42201;DHT22;27869;51.442;7.540;2024-02-16T13:34:52;14.20;99.90
42201;DHT22;27869;51.442;7.540;2024-02-16T13:37:19;14.20;99.90
42201;DHT22;27869;51.442;7.540;2024-02-16T13:39:46;14.10;99.90
42201;DHT22;27869;51.442;7.540;2024-02-16T13:42:13;14.10;99.90
42201;DHT22;27869;51.442;7.540;2024-02-16T13:44:41;14.10;99.90
42201;DHT22;27869;51.442;7.540;2024-02-16T13:47:08;14.00;99.90
42201;DHT22;27869;51.442;7.540;2024-02-16T13:49:35;14.00;99.90
42201;DHT22;27869;51.442;7.540;2024-02-16T13:52:02;14.00;99.90
42201;DHT22;27869;51.442;7.540;2024-02-16T13:54:29;13.90;99.90
42201;DHT22;27869;51.442;7.540;2024-02-16T13:56:56;13.90;99.90
42201;DHT22;27869;51.442;7.540;2024-02-16T13:59:23;13.80;99.90
42201;DHT22;27869;51.442;7.540;2024-02-16T14:01:51;13.80;99.90
42201;DHT22;27869;51.442;7.540;2024-02-16T14:04:18;13.70;99.90
42201;DHT22;27869;51.442;7.540;2024-02-16T14:06:45;13.70;99.90
42201;DHT22;27869;51.442;7.540;2024-02-16T14:09:12;13.70;99.90
42201;DHT22;27869;51.442;7.540;2024-02-16T14:11:40;13.60;99.90
42201;DHT22;27869;51.442;7.540;2024-02-16T14:14:08;13.60;99.90
42201;DHT22;27869;51.442;7.540;2024-02-16T14:16:35;13.50;99.90
42201;DHT22;27869;51.442;7.540;2024-02-16T14:19:04;13.50;99.90
42201;DHT22;27869;51.442;7.540;2024-02-16T14:21:31;13.50;99.90
42201;DHT22;27869;51.442;7.540;2024-02-16T14:23:58;13.40;99.90
42201;DHT22;27869;51.442;7.540;2024-02-16T14:26:25;13.40;99.90
42201;DHT22;27869;51.442;7.540;2024-02-16T14:28:52;13.40;99.90
42201;DHT22;27869;51.442;7.540;2024-02-16T14:31:20;13.40;99.90
42201;DHT22;27869;51.442;7.540;2024-02-16T14:33:47;13.40;99.90
42201;DHT22;27869;51.442;7.540;2024-02-16T14:36:16;13.30;99.90
42201;DHT22;27869;51.442;7.540;2024-02-16T14:38:42;13.30;99.90
42201;DHT22;27869;51.442;7.540;2024-02-16T14:41:09;13.30;99.90
42201;DHT22;27869;51.442;7.540;2024-02-16T14:43:36;13.20;99.90
42201;DHT22;27869;51.442;7.540;2024-02-16T14:46:03;13.30;99.90
42201;DHT22;27869;51.442;7.540;2024-02-16T14:48:30;13.20;99.90
42201;DHT22;27869;51.442;7.540;2024-02-16T14:50:57;13.20;99.90
42201;DHT22;27869;51.442;7.540;2024-02-16T14:53:25;13.20;99.90
42201;DHT22;27869;51.442;7.540;2024-02-16T14:55:52;13.20;99.90
42201;DHT22;27869;51.442;7.540;2024-02-16T14:58:19;13.20;99.90
42201;DHT22;27869;51.442;7.540;2024-02-16T15:00:46;13.20;99.90
42201;DHT22;27869;51.442;7.540;2024-02-16T15:03:15;13.20;99.90
42201;DHT22;27869;51.442;7.540;2024-02-16T15:05:44;13.20;99.90
42201;DHT22;27869;51.442;7.540;2024-02-16T15:08:11;13.10;99.90
42201;DHT22;27869;51.442;7.540;2024-02-16T15:10:40;13.10;99.90
42201;DHT22;27869;51.442;7.540;2024-02-16T15:13:08;13.10;99.90
42201;DHT22;27869;51.442;7.540;2024-02-16T15:15:35;13.10;99.90
42201;DHT22;27869;51.442;7.540;2024-02-16T15:18:03;13.10;99.90
42201;DHT22;27869;51.442;7.540;2024-02-16T15:20:30;13.10;99.90
42201;DHT22;27869;51.442;7.540;2024-02-16T15:22:57;13.10;99.90
42201;DHT22;27869;51.442;7.540;2024-02-16T15:25:24;13.10;99.90
42201;DHT22;27869;51.442;7.540;2024-02-16T15:27:52;13.10;99.90
42201;DHT22;27869;51.442;7.540;2024-02-16T15:30:20;13.10;99.90
42201;DHT22;27869;51.442;7.540;2024-02-16T15:32:47;13.10;99.90